createdAt,value
2023-02-11T00:03:27.541Z,17.90
2023-02-11T00:07:30.575Z,19.42
2023-02-11T00:11:32.929Z,23.70
2023-02-11T00:15:34.631Z,14.90
2023-02-11T00:19:36.541Z,12.60
2023-02-11T00:23:38.374Z,12.73
2023-02-11T00:27:40.179Z,20.05
2023-02-11T00:31:42.165Z,11.50
2023-02-11T00:35:44.037Z,8.98
2023-02-11T00:39:45.765Z,17.83
2023-02-11T00:43:48.097Z,15.43
2023-02-11T00:47:49.823Z,12.40
2023-02-11T00:51:51.584Z,24.83
2023-02-11T00:55:53.259Z,12.82
2023-02-11T00:59:55.331Z,16.90
2023-02-11T01:03:57.328Z,14.82
2023-02-11T01:07:59.326Z,12.98
2023-02-11T01:12:01.072Z,14.63
2023-02-11T01:16:04.159Z,10.82
2023-02-11T01:20:08.260Z,9.45
2023-02-11T01:24:09.997Z,16.23
2023-02-11T01:28:20.184Z,8.27
2023-02-11T01:32:21.952Z,19.42
2023-02-11T01:36:23.739Z,17.65
2023-02-11T01:40:25.553Z,12.13
2023-02-11T01:44:33.159Z,20.75
2023-02-11T01:48:39.278Z,16.95
2023-02-11T01:52:42.701Z,13.75
2023-02-11T01:57:08.491Z,18.65
2023-02-11T02:01:14.918Z,14.90
2023-02-11T02:05:23.448Z,23.60
2023-02-11T02:09:32.508Z,16.27
2023-02-11T02:13:35.382Z,22.80
2023-02-11T02:18:08.268Z,25.42
2023-02-11T02:22:47.160Z,17.52
2023-02-11T02:27:05.998Z,17.08
2023-02-11T02:31:16.516Z,17.08
2023-02-11T02:35:32.452Z,14.60
2023-02-11T02:39:36.614Z,17.38
2023-02-11T02:43:41.795Z,16.27
2023-02-11T02:47:43.640Z,18.40
2023-02-11T02:52:09.596Z,15.57
2023-02-11T02:56:16.735Z,23.55
2023-02-11T03:00:41.922Z,15.43
2023-02-11T03:04:57.612Z,24.17
2023-02-11T03:09:24.324Z,24.50
2023-02-11T03:13:33.661Z,17.83
2023-02-11T03:17:39.117Z,15.93
2023-02-11T03:21:43.945Z,18.88
2023-02-11T03:26:28.600Z,17.80
2023-02-11T03:30:40.452Z,23.48
2023-02-11T03:34:51.542Z,22.02
2023-02-11T03:38:57.058Z,25.40
2023-02-11T03:43:01.356Z,18.67
2023-02-11T03:47:05.848Z,22.30
2023-02-11T03:51:11.013Z,20.48
2023-02-11T03:55:17.704Z,23.17
2023-02-11T03:59:19.730Z,23.85
2023-02-11T04:03:21.495Z,21.75
2023-02-11T04:07:24.147Z,20.67
2023-02-11T04:11:25.921Z,24.20
2023-02-11T04:15:27.764Z,17.60
2023-02-11T04:19:29.540Z,17.10
2023-02-11T04:23:31.228Z,20.10
2023-02-11T04:27:33.009Z,17.17
2023-02-11T04:31:34.795Z,18.10
2023-02-11T04:35:36.554Z,26.58
2023-02-11T04:39:38.279Z,20.50
2023-02-11T04:43:40.026Z,24.98
2023-02-11T04:47:41.725Z,17.83
2023-02-11T04:51:47.545Z,12.57
2023-02-11T04:55:51.656Z,20.05
2023-02-11T04:59:53.641Z,14.27
2023-02-11T05:03:55.409Z,17.80
2023-02-11T05:07:57.351Z,23.48
2023-02-11T05:11:59.040Z,22.83
2023-02-11T05:16:00.924Z,18.23
2023-02-11T05:20:02.695Z,23.08
2023-02-11T05:24:04.783Z,25.25
2023-02-11T05:28:06.820Z,21.13
2023-02-11T05:32:09.195Z,22.27
2023-02-11T05:36:13.585Z,19.38
2023-02-11T05:40:15.457Z,28.70
2023-02-11T05:44:17.235Z,25.17
2023-02-11T05:48:19.071Z,27.98
2023-02-11T05:52:24.364Z,24.35
2023-02-11T05:56:26.081Z,20.35
2023-02-11T06:00:27.895Z,23.55
2023-02-11T06:04:29.689Z,24.33
2023-02-11T06:08:31.396Z,30.67
2023-02-11T06:12:33.617Z,20.58
2023-02-11T06:16:35.363Z,26.15
2023-02-11T06:20:37.516Z,25.92
2023-02-11T06:24:58.918Z,32.20
2023-02-11T06:29:01.208Z,31.58
2023-02-11T06:33:02.997Z,28.73
2023-02-11T06:37:05.183Z,30.83
2023-02-11T06:41:10.341Z,29.40
2023-02-11T06:45:13.428Z,28.58
2023-02-11T06:49:15.307Z,26.02
2023-02-11T06:53:17.140Z,34.75
2023-02-11T06:57:18.881Z,35.58
2023-02-11T07:01:21.375Z,29.80
2023-02-11T07:05:23.197Z,35.00
2023-02-11T07:09:24.938Z,27.33
2023-02-11T07:13:26.725Z,39.15
2023-02-11T07:17:28.562Z,30.52
2023-02-11T07:21:30.855Z,26.60
2023-02-11T07:25:32.600Z,29.73
2023-02-11T07:29:34.935Z,37.40
2023-02-11T07:33:37.363Z,32.70
2023-02-11T07:37:39.100Z,22.77
2023-02-11T07:41:40.900Z,24.23
2023-02-11T07:45:42.615Z,29.73
2023-02-11T07:49:45.271Z,30.27
2023-02-11T07:53:47.519Z,31.27
2023-02-11T07:57:49.252Z,31.55
2023-02-11T08:01:51.642Z,28.67
2023-02-11T08:05:53.538Z,30.88
2023-02-11T08:09:55.669Z,26.52
2023-02-11T08:13:57.671Z,26.40
2023-02-11T08:17:59.502Z,26.33
2023-02-11T08:22:01.527Z,24.08
2023-02-11T08:26:04.963Z,23.27
2023-02-11T08:30:07.332Z,25.13
2023-02-11T08:34:11.607Z,26.38
2023-02-11T08:38:13.368Z,24.30
2023-02-11T08:42:17.842Z,22.23
2023-02-11T08:46:20.261Z,25.42
2023-02-11T08:50:22.178Z,24.98
2023-02-11T08:54:23.909Z,27.95
2023-02-11T08:58:25.610Z,30.30
2023-02-11T09:02:27.443Z,22.70
2023-02-11T09:06:29.892Z,22.88
2023-02-11T09:10:31.564Z,22.90
2023-02-11T09:14:33.563Z,19.08
2023-02-11T09:18:35.345Z,20.67
2023-02-11T09:22:37.093Z,33.88
2023-02-11T09:26:43.379Z,23.73
2023-02-11T09:30:45.189Z,22.13
2023-02-11T09:34:46.970Z,16.20
2023-02-11T09:38:49.165Z,21.77
2023-02-11T09:42:53.562Z,20.52
2023-02-11T09:46:59.842Z,19.33
2023-02-11T09:51:04.208Z,18.42
2023-02-11T09:55:30.711Z,18.60
2023-02-11T09:59:32.533Z,16.15
2023-02-11T10:04:02.422Z,14.65
2023-02-11T10:08:09.967Z,18.80
2023-02-11T10:12:28.672Z,21.30
2023-02-11T10:16:33.564Z,21.13
2023-02-11T10:20:39.415Z,14.15
2023-02-11T10:24:48.568Z,15.30
2023-02-11T10:28:53.990Z,13.32
2023-02-11T10:33:03.377Z,13.02
2023-02-11T10:37:07.241Z,18.75
2023-02-11T10:41:26.344Z,13.90
2023-02-11T10:45:32.423Z,14.43
2023-02-11T10:49:44.457Z,13.73
2023-02-11T10:54:13.887Z,16.65
2023-02-11T10:58:25.262Z,11.88
2023-02-11T11:02:34.727Z,14.60
2023-02-11T11:06:36.722Z,13.38
2023-02-11T11:10:43.767Z,18.30
2023-02-11T11:14:55.611Z,19.77
2023-02-11T11:19:06.442Z,13.18
2023-02-11T11:23:22.831Z,10.38
2023-02-11T11:27:26.033Z,17.05
2023-02-11T11:31:35.814Z,10.68
2023-02-11T11:35:37.734Z,9.95
2023-02-11T11:39:40.576Z,13.90
2023-02-11T11:43:55.240Z,17.23
2023-02-11T11:48:24.143Z,14.43
2023-02-11T11:52:31.877Z,15.05
2023-02-11T11:56:38.145Z,9.68
2023-02-11T12:00:49.163Z,14.52
2023-02-11T12:05:07.874Z,9.90
2023-02-11T12:09:09.533Z,17.52
2023-02-11T12:13:25.696Z,10.73
2023-02-11T12:17:33.639Z,11.23
2023-02-11T12:21:59.365Z,12.10
2023-02-11T12:26:17.929Z,8.45
2023-02-11T12:30:38.757Z,13.88
2023-02-11T12:35:17.359Z,10.65
2023-02-11T12:39:49.843Z,11.43
2023-02-11T12:43:52.105Z,13.32
2023-02-11T12:48:22.668Z,13.02
2023-02-11T12:52:42.453Z,15.68
2023-02-11T12:56:50.996Z,17.73
2023-02-11T13:01:01.105Z,11.23
2023-02-11T13:05:14.352Z,10.65
2023-02-11T13:09:24.790Z,13.48
2023-02-11T13:13:35.968Z,12.00
2023-02-11T13:18:01.207Z,10.73
2023-02-11T13:22:16.704Z,12.77
2023-02-11T13:26:28.752Z,10.00
2023-02-11T13:30:35.525Z,8.85
2023-02-11T13:34:43.213Z,9.43
2023-02-11T13:38:54.109Z,9.73
2023-02-11T13:43:00.328Z,10.52
2023-02-11T13:47:05.515Z,10.50
2023-02-11T13:51:10.734Z,15.55
2023-02-11T13:55:23.393Z,8.95
2023-02-11T13:59:25.053Z,11.65
2023-02-11T14:04:11.731Z,9.15
2023-02-11T14:08:40.954Z,12.93
2023-02-11T14:12:42.849Z,12.13
2023-02-11T14:16:59.800Z,14.50
2023-02-11T14:21:18.306Z,12.70
2023-02-11T14:25:25.544Z,10.48
2023-02-11T14:29:36.093Z,13.93
2023-02-11T14:33:57.572Z,10.77
2023-02-11T14:38:18.122Z,10.38
2023-02-11T14:42:25.522Z,10.15
2023-02-11T14:46:30.354Z,11.63
2023-02-11T14:50:41.603Z,13.70
2023-02-11T14:54:45.248Z,11.80
2023-02-11T14:58:52.001Z,10.13
2023-02-11T15:02:53.914Z,15.82
2023-02-11T15:06:57.631Z,11.45
2023-02-11T15:11:02.816Z,10.27
2023-02-11T15:15:04.895Z,7.40
2023-02-11T15:19:07.676Z,9.52
2023-02-11T15:23:21.936Z,7.28
2023-02-11T15:27:25.885Z,12.27
2023-02-11T15:31:28.521Z,11.43
2023-02-11T15:35:44.535Z,9.25
2023-02-11T15:39:46.303Z,8.98
2023-02-11T15:43:51.136Z,8.18
2023-02-11T15:48:13.772Z,10.10
2023-02-11T15:52:23.859Z,10.77
2023-02-11T15:56:44.718Z,7.32
2023-02-11T16:00:50.015Z,8.00
2023-02-11T16:04:58.553Z,8.38
2023-02-11T16:09:06.726Z,7.82
2023-02-11T16:13:08.380Z,6.80
2023-02-11T16:17:24.239Z,13.35
2023-02-11T16:21:39.000Z,9.65
2023-02-11T16:25:42.556Z,10.85
2023-02-11T16:29:47.813Z,7.35
2023-02-11T16:33:49.526Z,8.27
2023-02-11T16:37:51.331Z,5.90
2023-02-11T16:41:53.117Z,6.57
2023-02-11T16:45:54.810Z,7.85
2023-02-11T16:49:57.646Z,7.15
2023-02-11T16:53:59.416Z,11.60
2023-02-11T16:58:01.284Z,8.80
2023-02-11T17:02:03.090Z,12.45
2023-02-11T17:06:10.295Z,9.75
2023-02-11T17:10:21.083Z,7.40
2023-02-11T17:14:22.809Z,10.23
2023-02-11T17:18:24.677Z,13.98
2023-02-11T17:22:26.380Z,11.95
2023-02-11T17:26:28.140Z,17.00
2023-02-11T17:30:29.955Z,11.43
2023-02-11T17:34:32.484Z,20.50
2023-02-11T17:38:35.645Z,11.88
2023-02-11T17:42:37.366Z,10.50
2023-02-11T17:46:39.191Z,9.15
2023-02-11T17:50:40.959Z,12.88
2023-02-11T17:54:42.647Z,9.35
2023-02-11T17:58:44.630Z,10.98
2023-02-11T18:02:46.388Z,12.15
2023-02-11T18:06:48.106Z,10.15
2023-02-11T18:10:49.866Z,9.95
2023-02-11T18:14:57.547Z,10.30
2023-02-11T18:18:59.787Z,16.42
2023-02-11T18:23:01.811Z,8.90
2023-02-11T18:27:03.877Z,15.20
2023-02-11T18:31:06.787Z,9.35
2023-02-11T18:35:14.814Z,13.13
2023-02-11T18:39:17.530Z,18.05
2023-02-11T18:43:20.355Z,8.38
2023-02-11T18:47:22.055Z,11.75
2023-02-11T18:51:24.167Z,13.88
2023-02-11T18:55:26.120Z,11.50
2023-02-11T18:59:27.929Z,15.05
2023-02-11T19:03:29.692Z,13.35
2023-02-11T19:07:32.584Z,10.73
2023-02-11T19:11:54.346Z,16.33
2023-02-11T19:15:56.253Z,8.95
2023-02-11T19:19:58.060Z,12.30
2023-02-11T19:24:00.914Z,13.43
2023-02-11T19:28:03.520Z,14.80
2023-02-11T19:32:06.265Z,8.48
2023-02-11T19:36:09.747Z,13.80
2023-02-11T19:40:12.531Z,13.43
2023-02-11T19:44:14.472Z,10.70
2023-02-11T19:48:16.220Z,18.42
2023-02-11T19:52:17.917Z,11.60
2023-02-11T19:56:20.911Z,16.00
2023-02-11T20:00:22.801Z,17.33
2023-02-11T20:04:25.244Z,16.25
2023-02-11T20:08:27.091Z,13.65
2023-02-11T20:12:29.016Z,13.05
2023-02-11T20:16:46.801Z,14.73
2023-02-11T20:20:49.564Z,14.68
2023-02-11T20:24:51.338Z,17.65
2023-02-11T20:28:54.944Z,14.35
2023-02-11T20:32:58.553Z,10.70
2023-02-11T20:37:00.676Z,14.73
2023-02-11T20:41:07.940Z,14.93
2023-02-11T20:45:10.705Z,12.52
2023-02-11T20:49:19.009Z,16.98
2023-02-11T20:57:22.504Z,10.65
2023-02-11T21:01:30.892Z,14.38
2023-02-11T21:05:32.681Z,15.00
2023-02-11T21:09:34.537Z,17.30
2023-02-11T21:13:38.000Z,18.45
2023-02-11T21:17:39.731Z,12.15
2023-02-11T21:21:42.056Z,19.27
2023-02-11T21:25:43.766Z,13.30
2023-02-11T21:29:53.847Z,17.15
2023-02-11T21:33:59.389Z,17.05
2023-02-11T21:38:01.431Z,17.27
2023-02-11T21:42:03.453Z,14.57
2023-02-11T21:46:14.615Z,16.63
2023-02-11T21:50:20.056Z,16.50
2023-02-11T21:54:22.003Z,16.95
2023-02-11T21:58:24.034Z,16.30
2023-02-11T22:02:25.898Z,18.63
2023-02-11T22:06:31.158Z,12.68
2023-02-11T22:10:32.976Z,19.15
2023-02-11T22:14:36.050Z,17.70
2023-02-11T22:18:38.155Z,19.92
2023-02-11T22:22:39.829Z,18.92
2023-02-11T22:26:41.580Z,20.98
2023-02-11T22:30:43.328Z,13.63
2023-02-11T22:34:45.147Z,13.77
2023-02-11T22:38:47.497Z,15.52
2023-02-11T22:42:49.258Z,10.50
2023-02-11T22:46:52.608Z,18.63
2023-02-11T22:50:54.612Z,17.20
2023-02-11T22:54:56.369Z,13.27
2023-02-11T22:59:03.627Z,16.65
2023-02-11T23:03:06.589Z,12.60
2023-02-11T23:07:08.529Z,17.20
2023-02-11T23:11:11.755Z,17.15
2023-02-11T23:15:13.656Z,13.23
2023-02-11T23:19:17.111Z,19.35
2023-02-11T23:23:18.800Z,11.15
2023-02-11T23:27:20.551Z,16.30
2023-02-11T23:31:28.235Z,17.23
2023-02-11T23:35:30.174Z,16.80
2023-02-11T23:39:31.924Z,15.98
2023-02-11T23:43:34.009Z,18.85
2023-02-11T23:47:35.775Z,14.73
2023-02-11T23:51:37.543Z,23.35
2023-02-11T23:55:43.467Z,17.05
2023-02-11T23:59:49.523Z,19.48
